sensor_id;sensor_type;location;lat;lon;timestamp;temperature;humidity
22925;DHT22;11628;51.072;3.712;2023-05-14T00:01:38;15.80;99.90
22925;DHT22;11628;51.072;3.712;2023-05-14T00:04:05;15.80;99.90
22925;DHT22;11628;51.072;3.712;2023-05-14T00:06:30;15.80;99.90
22925;DHT22;11628;51.072;3.712;2023-05-14T00:08:56;15.90;99.90
22925;DHT22;11628;51.072;3.712;2023-05-14T00:11:22;15.90;99.90
22925;DHT22;11628;51.072;3.712;2023-05-14T00:13:49;15.90;99.90
22925;DHT22;11628;51.072;3.712;2023-05-14T00:16:15;15.80;99.90
22925;DHT22;11628;51.072;3.712;2023-05-14T00:18:40;15.80;99.90
22925;DHT22;11628;51.072;3.712;2023-05-14T00:21:06;15.90;99.90
22925;DHT22;11628;51.072;3.712;2023-05-14T00:23:32;15.90;99.90
22925;DHT22;11628;51.072;3.712;2023-05-14T00:25:57;15.80;99.90
22925;DHT22;11628;51.072;3.712;2023-05-14T00:28:23;15.90;99.90
22925;DHT22;11628;51.072;3.712;2023-05-14T00:30:49;15.80;99.90
22925;DHT22;11628;51.072;3.712;2023-05-14T00:33:15;15.80;99.90
22925;DHT22;11628;51.072;3.712;2023-05-14T00:35:41;15.90;99.90
22925;DHT22;11628;51.072;3.712;2023-05-14T00:38:06;15.90;99.90
22925;DHT22;11628;51.072;3.712;2023-05-14T00:40:32;15.80;99.90
22925;DHT22;11628;51.072;3.712;2023-05-14T00:42:58;15.90;99.90
22925;DHT22;11628;51.072;3.712;2023-05-14T00:45:24;15.80;99.90
22925;DHT22;11628;51.072;3.712;2023-05-14T00:47:50;15.80;99.90
22925;DHT22;11628;51.072;3.712;2023-05-14T00:50:17;15.90;99.90
22925;DHT22;11628;51.072;3.712;2023-05-14T00:52:43;15.90;99.90
22925;DHT22;11628;51.072;3.712;2023-05-14T00:55:09;15.90;99.90
22925;DHT22;11628;51.072;3.712;2023-05-14T00:57:37;15.80;99.90
22925;DHT22;11628;51.072;3.712;2023-05-14T01:00:04;15.80;99.90
22925;DHT22;11628;51.072;3.712;2023-05-14T01:02:30;15.80;99.90
22925;DHT22;11628;51.072;3.712;2023-05-14T01:04:56;15.70;99.90
22925;DHT22;11628;51.072;3.712;2023-05-14T01:07:52;15.80;99.90
22925;DHT22;11628;51.072;3.712;2023-05-14T01:10:26;15.80;99.90
22925;DHT22;11628;51.072;3.712;2023-05-14T01:15:38;15.70;99.90
22925;DHT22;11628;51.072;3.712;2023-05-14T01:18:07;15.70;99.90
22925;DHT22;11628;51.072;3.712;2023-05-14T01:20:34;15.70;99.90
22925;DHT22;11628;51.072;3.712;2023-05-14T01:23:00;15.70;99.90
22925;DHT22;11628;51.072;3.712;2023-05-14T01:25:27;15.70;99.90
22925;DHT22;11628;51.072;3.712;2023-05-14T01:30:36;15.60;99.90
22925;DHT22;11628;51.072;3.712;2023-05-14T01:33:12;15.60;99.90
22925;DHT22;11628;51.072;3.712;2023-05-14T01:35:38;15.60;99.90
22925;DHT22;11628;51.072;3.712;2023-05-14T01:38:07;15.70;99.90
22925;DHT22;11628;51.072;3.712;2023-05-14T01:40:35;15.60;99.90
22925;DHT22;11628;51.072;3.712;2023-05-14T01:43:02;15.60;99.90
22925;DHT22;11628;51.072;3.712;2023-05-14T01:45:29;15.60;99.90
22925;DHT22;11628;51.072;3.712;2023-05-14T01:47:56;15.70;99.90
22925;DHT22;11628;51.072;3.712;2023-05-14T01:50:22;15.60;99.90
22925;DHT22;11628;51.072;3.712;2023-05-14T01:52:48;15.60;99.90
22925;DHT22;11628;51.072;3.712;2023-05-14T01:55:14;15.60;99.90
22925;DHT22;11628;51.072;3.712;2023-05-14T01:57:40;15.70;99.90
22925;DHT22;11628;51.072;3.712;2023-05-14T02:00:06;15.60;99.90
22925;DHT22;11628;51.072;3.712;2023-05-14T02:02:32;15.50;99.90
22925;DHT22;11628;51.072;3.712;2023-05-14T02:04:58;15.50;99.90
22925;DHT22;11628;51.072;3.712;2023-05-14T02:07:24;15.50;99.90
22925;DHT22;11628;51.072;3.712;2023-05-14T02:09:49;15.50;99.90
22925;DHT22;11628;51.072;3.712;2023-05-14T02:12:15;15.50;99.90
22925;DHT22;11628;51.072;3.712;2023-05-14T02:14:41;15.50;99.90
22925;DHT22;11628;51.072;3.712;2023-05-14T02:17:07;15.60;99.90
22925;DHT22;11628;51.072;3.712;2023-05-14T02:19:33;15.60;99.90
22925;DHT22;11628;51.072;3.712;2023-05-14T02:21:58;15.60;99.90
22925;DHT22;11628;51.072;3.712;2023-05-14T02:24:25;15.60;99.90
22925;DHT22;11628;51.072;3.712;2023-05-14T02:26:51;15.60;99.90
22925;DHT22;11628;51.072;3.712;2023-05-14T02:29:17;15.50;99.90
22925;DHT22;11628;51.072;3.712;2023-05-14T02:31:43;15.50;99.90
22925;DHT22;11628;51.072;3.712;2023-05-14T02:34:09;15.50;99.90
22925;DHT22;11628;51.072;3.712;2023-05-14T02:36:34;15.40;99.90
22925;DHT22;11628;51.072;3.712;2023-05-14T02:39:00;15.40;99.90
22925;DHT22;11628;51.072;3.712;2023-05-14T02:41:26;15.40;99.90
22925;DHT22;11628;51.072;3.712;2023-05-14T02:43:52;15.50;99.90
22925;DHT22;11628;51.072;3.712;2023-05-14T02:46:18;15.40;99.90
22925;DHT22;11628;51.072;3.712;2023-05-14T02:48:44;15.40;99.90
22925;DHT22;11628;51.072;3.712;2023-05-14T02:51:10;15.30;99.90
22925;DHT22;11628;51.072;3.712;2023-05-14T02:53:36;15.40;99.90
22925;DHT22;11628;51.072;3.712;2023-05-14T02:56:02;15.40;99.90
22925;DHT22;11628;51.072;3.712;2023-05-14T02:58:27;15.30;99.90
22925;DHT22;11628;51.072;3.712;2023-05-14T03:00:53;15.40;99.90
22925;DHT22;11628;51.072;3.712;2023-05-14T03:03:19;15.40;99.90
22925;DHT22;11628;51.072;3.712;2023-05-14T03:05:44;15.40;99.90
22925;DHT22;11628;51.072;3.712;2023-05-14T03:08:10;15.30;99.90
22925;DHT22;11628;51.072;3.712;2023-05-14T03:10:36;15.30;99.90
22925;DHT22;11628;51.072;3.712;2023-05-14T03:13:02;15.40;99.90
22925;DHT22;11628;51.072;3.712;2023-05-14T03:15:28;15.30;99.90
22925;DHT22;11628;51.072;3.712;2023-05-14T03:17:53;15.30;99.90
22925;DHT22;11628;51.072;3.712;2023-05-14T03:20:19;15.30;99.90
22925;DHT22;11628;51.072;3.712;2023-05-14T03:22:45;15.30;99.90
22925;DHT22;11628;51.072;3.712;2023-05-14T03:25:11;15.30;99.90
22925;DHT22;11628;51.072;3.712;2023-05-14T03:27:37;15.40;99.90
22925;DHT22;11628;51.072;3.712;2023-05-14T03:30:03;15.30;99.90
22925;DHT22;11628;51.072;3.712;2023-05-14T03:32:29;15.20;99.90
22925;DHT22;11628;51.072;3.712;2023-05-14T03:34:55;15.20;99.90
22925;DHT22;11628;51.072;3.712;2023-05-14T03:37:20;15.30;99.90
22925;DHT22;11628;51.072;3.712;2023-05-14T03:39:46;15.30;99.90
22925;DHT22;11628;51.072;3.712;2023-05-14T03:42:12;15.30;99.90
22925;DHT22;11628;51.072;3.712;2023-05-14T03:44:37;15.30;99.90
22925;DHT22;11628;51.072;3.712;2023-05-14T03:47:03;15.30;99.90
22925;DHT22;11628;51.072;3.712;2023-05-14T03:49:29;15.20;99.90
22925;DHT22;11628;51.072;3.712;2023-05-14T03:51:55;15.20;99.90
22925;DHT22;11628;51.072;3.712;2023-05-14T03:54:22;15.20;99.90
22925;DHT22;11628;51.072;3.712;2023-05-14T03:56:48;15.20;99.90
22925;DHT22;11628;51.072;3.712;2023-05-14T03:59:13;15.20;99.90
22925;DHT22;11628;51.072;3.712;2023-05-14T04:01:39;15.20;99.90
22925;DHT22;11628;51.072;3.712;2023-05-14T04:04:05;15.30;99.90
22925;DHT22;11628;51.072;3.712;2023-05-14T04:06:32;15.20;99.90
22925;DHT22;11628;51.072;3.712;2023-05-14T04:08:57;15.20;99.90
22925;DHT22;11628;51.072;3.712;2023-05-14T04:11:23;15.20;99.90
22925;DHT22;11628;51.072;3.712;2023-05-14T04:13:49;15.10;99.90
22925;DHT22;11628;51.072;3.712;2023-05-14T04:16:14;15.20;99.90
22925;DHT22;11628;51.072;3.712;2023-05-14T04:18:40;15.20;99.90
22925;DHT22;11628;51.072;3.712;2023-05-14T04:21:06;15.20;99.90
22925;DHT22;11628;51.072;3.712;2023-05-14T04:23:31;15.20;99.90
22925;DHT22;11628;51.072;3.712;2023-05-14T04:25:57;15.20;99.90
22925;DHT22;11628;51.072;3.712;2023-05-14T04:28:23;15.30;99.90
22925;DHT22;11628;51.072;3.712;2023-05-14T04:30:49;15.30;99.90
22925;DHT22;11628;51.072;3.712;2023-05-14T04:33:15;15.30;99.90
22925;DHT22;11628;51.072;3.712;2023-05-14T04:35:41;15.20;99.90
22925;DHT22;11628;51.072;3.712;2023-05-14T04:38:06;15.20;99.90
22925;DHT22;11628;51.072;3.712;2023-05-14T04:40:32;15.20;99.90
22925;DHT22;11628;51.072;3.712;2023-05-14T04:42:58;15.30;99.90
22925;DHT22;11628;51.072;3.712;2023-05-14T04:45:24;15.30;99.90
22925;DHT22;11628;51.072;3.712;2023-05-14T04:47:50;15.30;99.90
22925;DHT22;11628;51.072;3.712;2023-05-14T04:50:16;15.30;99.90
22925;DHT22;11628;51.072;3.712;2023-05-14T04:52:42;15.30;99.90
22925;DHT22;11628;51.072;3.712;2023-05-14T04:55:08;15.20;99.90
22925;DHT22;11628;51.072;3.712;2023-05-14T04:57:34;15.30;99.90
22925;DHT22;11628;51.072;3.712;2023-05-14T04:59:59;15.30;99.90
22925;DHT22;11628;51.072;3.712;2023-05-14T05:02:25;15.20;99.90
22925;DHT22;11628;51.072;3.712;2023-05-14T05:04:51;15.30;99.90
22925;DHT22;11628;51.072;3.712;2023-05-14T05:07:16;15.40;99.90
22925;DHT22;11628;51.072;3.712;2023-05-14T05:09:42;15.40;99.90
22925;DHT22;11628;51.072;3.712;2023-05-14T05:12:08;15.40;99.90
22925;DHT22;11628;51.072;3.712;2023-05-14T05:14:34;15.40;99.90
22925;DHT22;11628;51.072;3.712;2023-05-14T05:17:00;15.40;99.90
22925;DHT22;11628;51.072;3.712;2023-05-14T05:19:26;15.50;99.90
22925;DHT22;11628;51.072;3.712;2023-05-14T05:21:51;15.50;99.90
22925;DHT22;11628;51.072;3.712;2023-05-14T05:24:17;15.50;99.90
22925;DHT22;11628;51.072;3.712;2023-05-14T05:26:43;15.70;99.90
22925;DHT22;11628;51.072;3.712;2023-05-14T05:29:09;15.70;99.90
22925;DHT22;11628;51.072;3.712;2023-05-14T05:31:34;15.80;99.90
22925;DHT22;11628;51.072;3.712;2023-05-14T05:34:01;15.90;99.90
22925;DHT22;11628;51.072;3.712;2023-05-14T05:36:27;15.90;99.90
22925;DHT22;11628;51.072;3.712;2023-05-14T05:38:53;15.90;99.90
22925;DHT22;11628;51.072;3.712;2023-05-14T05:41:19;15.90;99.90
22925;DHT22;11628;51.072;3.712;2023-05-14T05:43:45;16.00;99.90
22925;DHT22;11628;51.072;3.712;2023-05-14T05:46:11;16.00;99.90
22925;DHT22;11628;51.072;3.712;2023-05-14T05:48:36;16.00;99.90
22925;DHT22;11628;51.072;3.712;2023-05-14T05:51:02;16.00;99.90
22925;DHT22;11628;51.072;3.712;2023-05-14T05:53:28;16.00;99.90
22925;DHT22;11628;51.072;3.712;2023-05-14T05:55:53;16.00;99.90
22925;DHT22;11628;51.072;3.712;2023-05-14T05:58:19;15.90;99.90
22925;DHT22;11628;51.072;3.712;2023-05-14T06:00:45;15.90;99.90
22925;DHT22;11628;51.072;3.712;2023-05-14T06:03:14;15.90;99.90
22925;DHT22;11628;51.072;3.712;2023-05-14T06:05:40;16.00;99.90
22925;DHT22;11628;51.072;3.712;2023-05-14T06:08:05;16.10;99.90
22925;DHT22;11628;51.072;3.712;2023-05-14T06:10:32;16.20;99.90
22925;DHT22;11628;51.072;3.712;2023-05-14T06:12:58;16.20;99.90
22925;DHT22;11628;51.072;3.712;2023-05-14T06:15:24;16.20;99.90
22925;DHT22;11628;51.072;3.712;2023-05-14T06:17:50;16.30;99.90
22925;DHT22;11628;51.072;3.712;2023-05-14T06:20:16;16.30;99.90
22925;DHT22;11628;51.072;3.712;2023-05-14T06:22:41;16.30;99.90
22925;DHT22;11628;51.072;3.712;2023-05-14T06:25:07;16.20;99.90
22925;DHT22;11628;51.072;3.712;2023-05-14T06:27:33;16.10;99.90
22925;DHT22;11628;51.072;3.712;2023-05-14T06:29:59;16.10;99.90
22925;DHT22;11628;51.072;3.712;2023-05-14T06:32:25;16.00;99.90
22925;DHT22;11628;51.072;3.712;2023-05-14T06:34:51;16.00;99.90
22925;DHT22;11628;51.072;3.712;2023-05-14T06:37:16;16.00;99.90
22925;DHT22;11628;51.072;3.712;2023-05-14T06:39:42;16.10;99.90
22925;DHT22;11628;51.072;3.712;2023-05-14T06:42:15;16.30;99.90
22925;DHT22;11628;51.072;3.712;2023-05-14T06:44:41;16.30;99.90
22925;DHT22;11628;51.072;3.712;2023-05-14T06:47:07;16.30;99.90
22925;DHT22;11628;51.072;3.712;2023-05-14T06:49:33;16.40;99.90
22925;DHT22;11628;51.072;3.712;2023-05-14T06:52:00;16.40;99.90
22925;DHT22;11628;51.072;3.712;2023-05-14T06:54:25;16.50;99.90
22925;DHT22;11628;51.072;3.712;2023-05-14T06:56:51;16.50;99.90
22925;DHT22;11628;51.072;3.712;2023-05-14T06:59:17;16.40;99.90
22925;DHT22;11628;51.072;3.712;2023-05-14T07:01:42;16.50;99.90
22925;DHT22;11628;51.072;3.712;2023-05-14T07:04:08;16.60;99.90
22925;DHT22;11628;51.072;3.712;2023-05-14T07:06:34;16.70;99.90
22925;DHT22;11628;51.072;3.712;2023-05-14T07:09:00;16.60;99.90
22925;DHT22;11628;51.072;3.712;2023-05-14T07:11:26;16.60;99.90
22925;DHT22;11628;51.072;3.712;2023-05-14T07:13:52;16.60;99.90
22925;DHT22;11628;51.072;3.712;2023-05-14T07:16:17;16.60;99.90
22925;DHT22;11628;51.072;3.712;2023-05-14T07:18:44;16.70;99.90
22925;DHT22;11628;51.072;3.712;2023-05-14T07:21:10;16.80;99.90
22925;DHT22;11628;51.072;3.712;2023-05-14T07:23:36;17.00;99.90
22925;DHT22;11628;51.072;3.712;2023-05-14T07:26:04;17.00;99.90
22925;DHT22;11628;51.072;3.712;2023-05-14T07:28:30;17.00;99.90
22925;DHT22;11628;51.072;3.712;2023-05-14T07:30:56;17.10;99.90
22925;DHT22;11628;51.072;3.712;2023-05-14T07:33:23;17.20;99.90
22925;DHT22;11628;51.072;3.712;2023-05-14T07:35:48;17.10;99.90
22925;DHT22;11628;51.072;3.712;2023-05-14T07:38:14;17.10;99.90
22925;DHT22;11628;51.072;3.712;2023-05-14T07:40:40;16.90;99.90
22925;DHT22;11628;51.072;3.712;2023-05-14T07:43:06;17.00;99.90
22925;DHT22;11628;51.072;3.712;2023-05-14T07:45:31;17.00;99.90
22925;DHT22;11628;51.072;3.712;2023-05-14T07:47:57;17.10;99.90
22925;DHT22;11628;51.072;3.712;2023-05-14T07:50:23;17.30;99.90
22925;DHT22;11628;51.072;3.712;2023-05-14T07:52:48;17.40;99.90
22925;DHT22;11628;51.072;3.712;2023-05-14T07:55:14;17.50;99.90
22925;DHT22;11628;51.072;3.712;2023-05-14T07:57:40;17.60;99.90
22925;DHT22;11628;51.072;3.712;2023-05-14T08:00:06;17.70;99.90
22925;DHT22;11628;51.072;3.712;2023-05-14T08:02:32;17.70;99.90
22925;DHT22;11628;51.072;3.712;2023-05-14T08:04:58;17.80;99.90
22925;DHT22;11628;51.072;3.712;2023-05-14T08:07:24;17.90;99.90
22925;DHT22;11628;51.072;3.712;2023-05-14T08:09:50;17.90;99.90
22925;DHT22;11628;51.072;3.712;2023-05-14T08:12:15;17.80;99.90
22925;DHT22;11628;51.072;3.712;2023-05-14T08:14:41;17.90;99.90
22925;DHT22;11628;51.072;3.712;2023-05-14T08:17:07;18.00;99.90
22925;DHT22;11628;51.072;3.712;2023-05-14T08:19:32;18.10;99.90
22925;DHT22;11628;51.072;3.712;2023-05-14T08:21:58;18.20;99.90
22925;DHT22;11628;51.072;3.712;2023-05-14T08:24:24;18.20;99.90
22925;DHT22;11628;51.072;3.712;2023-05-14T08:26:49;18.30;99.90
22925;DHT22;11628;51.072;3.712;2023-05-14T08:29:15;18.50;99.90
22925;DHT22;11628;51.072;3.712;2023-05-14T08:31:41;18.70;99.90
22925;DHT22;11628;51.072;3.712;2023-05-14T08:34:07;18.80;99.90
22925;DHT22;11628;51.072;3.712;2023-05-14T08:36:32;19.00;99.90
22925;DHT22;11628;51.072;3.712;2023-05-14T08:38:58;19.20;99.90
22925;DHT22;11628;51.072;3.712;2023-05-14T08:41:24;19.40;99.90
22925;DHT22;11628;51.072;3.712;2023-05-14T08:43:54;19.90;99.90
22925;DHT22;11628;51.072;3.712;2023-05-14T08:46:23;20.30;99.90
22925;DHT22;11628;51.072;3.712;2023-05-14T08:51:59;20.50;99.90
22925;DHT22;11628;51.072;3.712;2023-05-14T08:54:25;20.80;99.90
22925;DHT22;11628;51.072;3.712;2023-05-14T08:56:53;21.30;99.90
22925;DHT22;11628;51.072;3.712;2023-05-14T08:59:19;22.00;99.90
22925;DHT22;11628;51.072;3.712;2023-05-14T09:01:49;23.30;99.90
22925;DHT22;11628;51.072;3.712;2023-05-14T09:04:19;24.80;99.90
22925;DHT22;11628;51.072;3.712;2023-05-14T09:06:48;25.70;99.90
22925;DHT22;11628;51.072;3.712;2023-05-14T09:09:14;26.10;99.90
22925;DHT22;11628;51.072;3.712;2023-05-14T09:11:45;26.40;99.90
22925;DHT22;11628;51.072;3.712;2023-05-14T09:14:11;26.60;99.90
22925;DHT22;11628;51.072;3.712;2023-05-14T09:16:38;27.00;99.90
22925;DHT22;11628;51.072;3.712;2023-05-14T09:19:05;28.20;99.90
22925;DHT22;11628;51.072;3.712;2023-05-14T09:21:32;28.90;99.50
22925;DHT22;11628;51.072;3.712;2023-05-14T09:23:58;29.80;97.10
22925;DHT22;11628;51.072;3.712;2023-05-14T09:26:25;30.70;95.00
22925;DHT22;11628;51.072;3.712;2023-05-14T09:28:56;32.00;92.40
22925;DHT22;11628;51.072;3.712;2023-05-14T09:31:22;32.20;91.20
22925;DHT22;11628;51.072;3.712;2023-05-14T09:33:51;32.70;89.70
22925;DHT22;11628;51.072;3.712;2023-05-14T09:36:17;34.00;85.50
22925;DHT22;11628;51.072;3.712;2023-05-14T09:38:43;34.80;80.50
22925;DHT22;11628;51.072;3.712;2023-05-14T09:41:09;35.30;79.20
22925;DHT22;11628;51.072;3.712;2023-05-14T09:43:35;36.20;76.60
22925;DHT22;11628;51.072;3.712;2023-05-14T09:46:01;37.30;72.10
22925;DHT22;11628;51.072;3.712;2023-05-14T09:48:27;38.30;68.80
22925;DHT22;11628;51.072;3.712;2023-05-14T09:50:53;39.30;65.30
22925;DHT22;11628;51.072;3.712;2023-05-14T09:53:19;39.80;63.90
22925;DHT22;11628;51.072;3.712;2023-05-14T09:55:45;40.10;62.20
22925;DHT22;11628;51.072;3.712;2023-05-14T09:58:11;40.60;60.40
22925;DHT22;11628;51.072;3.712;2023-05-14T10:00:38;40.30;59.60
22925;DHT22;11628;51.072;3.712;2023-05-14T10:03:06;39.90;59.40
22925;DHT22;11628;51.072;3.712;2023-05-14T10:05:35;40.80;57.60
22925;DHT22;11628;51.072;3.712;2023-05-14T10:08:12;41.70;57.10
22925;DHT22;11628;51.072;3.712;2023-05-14T10:10:38;42.20;55.60
22925;DHT22;11628;51.072;3.712;2023-05-14T10:13:09;42.60;54.60
22925;DHT22;11628;51.072;3.712;2023-05-14T10:15:57;42.80;54.00
22925;DHT22;11628;51.072;3.712;2023-05-14T10:18:27;43.00;53.70
22925;DHT22;11628;51.072;3.712;2023-05-14T10:21:03;42.80;54.20
22925;DHT22;11628;51.072;3.712;2023-05-14T10:23:30;42.40;54.00
22925;DHT22;11628;51.072;3.712;2023-05-14T10:25:57;42.90;52.20
22925;DHT22;11628;51.072;3.712;2023-05-14T10:28:23;43.40;51.50
22925;DHT22;11628;51.072;3.712;2023-05-14T10:30:49;43.60;51.30
22925;DHT22;11628;51.072;3.712;2023-05-14T10:33:15;43.70;50.40
22925;DHT22;11628;51.072;3.712;2023-05-14T10:36:04;44.10;50.00
22925;DHT22;11628;51.072;3.712;2023-05-14T10:38:38;44.10;50.30
22925;DHT22;11628;51.072;3.712;2023-05-14T10:41:12;43.60;51.10
22925;DHT22;11628;51.072;3.712;2023-05-14T10:43:40;43.60;50.50
22925;DHT22;11628;51.072;3.712;2023-05-14T10:46:07;44.40;49.70
22925;DHT22;11628;51.072;3.712;2023-05-14T10:48:34;44.90;49.30
22925;DHT22;11628;51.072;3.712;2023-05-14T10:51:01;45.20;48.30
22925;DHT22;11628;51.072;3.712;2023-05-14T10:53:36;45.50;48.50
22925;DHT22;11628;51.072;3.712;2023-05-14T10:56:06;45.70;48.00
22925;DHT22;11628;51.072;3.712;2023-05-14T10:58:35;45.50;48.00
22925;DHT22;11628;51.072;3.712;2023-05-14T11:01:02;45.90;47.80
22925;DHT22;11628;51.072;3.712;2023-05-14T11:03:31;45.50;48.10
22925;DHT22;11628;51.072;3.712;2023-05-14T11:05:58;45.70;48.50
22925;DHT22;11628;51.072;3.712;2023-05-14T11:08:25;45.80;47.60
22925;DHT22;11628;51.072;3.712;2023-05-14T11:10:53;46.20;46.20
22925;DHT22;11628;51.072;3.712;2023-05-14T11:13:20;46.20;46.20
22925;DHT22;11628;51.072;3.712;2023-05-14T11:15:46;46.00;46.30
22925;DHT22;11628;51.072;3.712;2023-05-14T11:18:24;45.50;47.10
22925;DHT22;11628;51.072;3.712;2023-05-14T11:20:50;45.60;46.80
22925;DHT22;11628;51.072;3.712;2023-05-14T11:23:17;46.20;46.90
22925;DHT22;11628;51.072;3.712;2023-05-14T11:25:42;46.10;46.70
22925;DHT22;11628;51.072;3.712;2023-05-14T11:28:08;46.30;45.70
22925;DHT22;11628;51.072;3.712;2023-05-14T11:30:34;46.10;45.80
22925;DHT22;11628;51.072;3.712;2023-05-14T11:33:00;46.10;45.90
22925;DHT22;11628;51.072;3.712;2023-05-14T11:35:26;46.60;45.80
22925;DHT22;11628;51.072;3.712;2023-05-14T11:37:51;46.80;45.70
22925;DHT22;11628;51.072;3.712;2023-05-14T11:40:18;46.60;46.10
22925;DHT22;11628;51.072;3.712;2023-05-14T11:42:44;47.00;45.40
22925;DHT22;11628;51.072;3.712;2023-05-14T11:45:11;47.20;45.80
22925;DHT22;11628;51.072;3.712;2023-05-14T11:47:37;47.20;45.20
22925;DHT22;11628;51.072;3.712;2023-05-14T11:50:03;47.00;44.80
22925;DHT22;11628;51.072;3.712;2023-05-14T11:52:29;47.20;44.20
22925;DHT22;11628;51.072;3.712;2023-05-14T11:54:54;46.80;44.80
22925;DHT22;11628;51.072;3.712;2023-05-14T11:57:21;46.50;45.40
22925;DHT22;11628;51.072;3.712;2023-05-14T11:59:48;46.60;45.60
22925;DHT22;11628;51.072;3.712;2023-05-14T12:02:17;46.80;45.30
22925;DHT22;11628;51.072;3.712;2023-05-14T12:04:43;46.90;45.30
22925;DHT22;11628;51.072;3.712;2023-05-14T12:07:13;47.00;44.30
22925;DHT22;11628;51.072;3.712;2023-05-14T12:09:41;47.00;44.30
22925;DHT22;11628;51.072;3.712;2023-05-14T12:12:11;46.90;44.60
22925;DHT22;11628;51.072;3.712;2023-05-14T12:14:39;46.70;43.90
22925;DHT22;11628;51.072;3.712;2023-05-14T12:17:13;47.00;44.40
22925;DHT22;11628;51.072;3.712;2023-05-14T12:19:40;46.70;44.80
22925;DHT22;11628;51.072;3.712;2023-05-14T12:22:07;46.90;45.00
22925;DHT22;11628;51.072;3.712;2023-05-14T12:24:33;47.00;44.90
22925;DHT22;11628;51.072;3.712;2023-05-14T12:27:01;46.90;44.60
22925;DHT22;11628;51.072;3.712;2023-05-14T12:29:27;47.00;44.70
22925;DHT22;11628;51.072;3.712;2023-05-14T12:31:52;46.50;45.30
22925;DHT22;11628;51.072;3.712;2023-05-14T12:34:21;46.30;45.00
22925;DHT22;11628;51.072;3.712;2023-05-14T12:36:47;46.50;45.00
22925;DHT22;11628;51.072;3.712;2023-05-14T12:39:12;46.60;44.80
22925;DHT22;11628;51.072;3.712;2023-05-14T12:41:38;46.50;44.80
22925;DHT22;11628;51.072;3.712;2023-05-14T12:44:04;45.80;45.30
22925;DHT22;11628;51.072;3.712;2023-05-14T12:46:31;45.30;45.30
22925;DHT22;11628;51.072;3.712;2023-05-14T12:48:58;45.40;45.30
22925;DHT22;11628;51.072;3.712;2023-05-14T12:51:24;45.60;45.00
22925;DHT22;11628;51.072;3.712;2023-05-14T12:53:50;45.60;44.80
22925;DHT22;11628;51.072;3.712;2023-05-14T12:56:17;45.30;45.10
22925;DHT22;11628;51.072;3.712;2023-05-14T12:58:43;45.30;45.40
22925;DHT22;11628;51.072;3.712;2023-05-14T13:01:11;45.50;45.40
22925;DHT22;11628;51.072;3.712;2023-05-14T13:03:36;45.40;44.90
22925;DHT22;11628;51.072;3.712;2023-05-14T13:06:02;45.20;45.20
22925;DHT22;11628;51.072;3.712;2023-05-14T13:08:28;44.90;45.40
22925;DHT22;11628;51.072;3.712;2023-05-14T13:10:54;44.70;45.80
22925;DHT22;11628;51.072;3.712;2023-05-14T13:13:21;44.50;45.80
22925;DHT22;11628;51.072;3.712;2023-05-14T13:15:47;44.20;46.30
22925;DHT22;11628;51.072;3.712;2023-05-14T13:18:13;44.00;46.30
22925;DHT22;11628;51.072;3.712;2023-05-14T13:20:39;44.00;46.50
22925;DHT22;11628;51.072;3.712;2023-05-14T13:23:05;44.00;46.50
22925;DHT22;11628;51.072;3.712;2023-05-14T13:25:31;44.00;46.10
22925;DHT22;11628;51.072;3.712;2023-05-14T13:27:56;43.80;46.60
22925;DHT22;11628;51.072;3.712;2023-05-14T13:30:22;43.80;46.20
22925;DHT22;11628;51.072;3.712;2023-05-14T13:32:48;43.30;46.30
22925;DHT22;11628;51.072;3.712;2023-05-14T13:35:14;42.60;46.80
22925;DHT22;11628;51.072;3.712;2023-05-14T13:37:41;41.60;47.60
22925;DHT22;11628;51.072;3.712;2023-05-14T13:40:07;41.10;48.30
22925;DHT22;11628;51.072;3.712;2023-05-14T13:42:35;40.70;49.30
22925;DHT22;11628;51.072;3.712;2023-05-14T13:45:01;40.30;49.60
22925;DHT22;11628;51.072;3.712;2023-05-14T13:47:27;40.10;49.30
22925;DHT22;11628;51.072;3.712;2023-05-14T13:49:54;39.80;49.10
22925;DHT22;11628;51.072;3.712;2023-05-14T13:52:20;39.70;49.70
22925;DHT22;11628;51.072;3.712;2023-05-14T13:54:46;39.50;50.00
22925;DHT22;11628;51.072;3.712;2023-05-14T13:57:12;39.30;49.90
22925;DHT22;11628;51.072;3.712;2023-05-14T13:59:37;39.40;49.70
22925;DHT22;11628;51.072;3.712;2023-05-14T14:02:04;39.30;49.80
22925;DHT22;11628;51.072;3.712;2023-05-14T14:04:30;38.80;50.50
22925;DHT22;11628;51.072;3.712;2023-05-14T14:06:56;38.50;50.60
22925;DHT22;11628;51.072;3.712;2023-05-14T14:09:22;38.00;51.30
22925;DHT22;11628;51.072;3.712;2023-05-14T14:11:49;37.90;51.90
22925;DHT22;11628;51.072;3.712;2023-05-14T14:14:15;38.00;50.70
22925;DHT22;11628;51.072;3.712;2023-05-14T14:16:41;37.70;51.10
22925;DHT22;11628;51.072;3.712;2023-05-14T14:19:06;37.30;51.00
22925;DHT22;11628;51.072;3.712;2023-05-14T14:21:32;36.60;51.80
22925;DHT22;11628;51.072;3.712;2023-05-14T14:24:01;36.10;52.50
22925;DHT22;11628;51.072;3.712;2023-05-14T14:26:27;35.80;53.10
22925;DHT22;11628;51.072;3.712;2023-05-14T14:28:54;35.40;53.60
22925;DHT22;11628;51.072;3.712;2023-05-14T14:31:20;35.10;53.50
22925;DHT22;11628;51.072;3.712;2023-05-14T14:33:46;35.00;53.20
22925;DHT22;11628;51.072;3.712;2023-05-14T14:36:11;34.80;53.30
22925;DHT22;11628;51.072;3.712;2023-05-14T14:38:37;34.60;53.30
22925;DHT22;11628;51.072;3.712;2023-05-14T14:41:04;34.40;54.10
22925;DHT22;11628;51.072;3.712;2023-05-14T14:43:33;34.30;54.50
22925;DHT22;11628;51.072;3.712;2023-05-14T14:45:58;34.50;54.50
22925;DHT22;11628;51.072;3.712;2023-05-14T14:48:29;34.60;54.20
22925;DHT22;11628;51.072;3.712;2023-05-14T14:50:59;34.70;53.80
22925;DHT22;11628;51.072;3.712;2023-05-14T14:53:28;34.70;54.00
22925;DHT22;11628;51.072;3.712;2023-05-14T14:55:55;34.50;53.70
22925;DHT22;11628;51.072;3.712;2023-05-14T14:58:21;34.00;54.60
22925;DHT22;11628;51.072;3.712;2023-05-14T15:00:50;33.90;54.50
22925;DHT22;11628;51.072;3.712;2023-05-14T15:03:16;34.00;54.40
22925;DHT22;11628;51.072;3.712;2023-05-14T15:05:42;34.20;54.60
22925;DHT22;11628;51.072;3.712;2023-05-14T15:08:08;34.40;54.40
22925;DHT22;11628;51.072;3.712;2023-05-14T15:10:34;34.50;54.40
22925;DHT22;11628;51.072;3.712;2023-05-14T15:13:02;34.40;53.90
22925;DHT22;11628;51.072;3.712;2023-05-14T15:15:28;34.20;54.30
22925;DHT22;11628;51.072;3.712;2023-05-14T15:17:55;33.90;54.20
22925;DHT22;11628;51.072;3.712;2023-05-14T15:20:21;33.40;54.90
22925;DHT22;11628;51.072;3.712;2023-05-14T15:22:47;33.00;55.70
22925;DHT22;11628;51.072;3.712;2023-05-14T15:25:14;32.80;55.90
22925;DHT22;11628;51.072;3.712;2023-05-14T15:27:40;32.50;56.60
22925;DHT22;11628;51.072;3.712;2023-05-14T15:30:06;32.20;57.10
22925;DHT22;11628;51.072;3.712;2023-05-14T15:32:32;32.20;57.50
22925;DHT22;11628;51.072;3.712;2023-05-14T15:34:58;32.00;57.70